sensor_id;sensor_type;location;lat;lon;timestamp;P1;durP1;ratioP1;P2;durP2;ratioP2
69625;SDS011;56847;51.984;5.088;2023-04-15T00:02:12;12.20;;;5.72;;
69625;SDS011;56847;51.984;5.088;2023-04-15T00:04:44;11.73;;;5.72;;
69625;SDS011;56847;51.984;5.088;2023-04-15T00:07:14;10.18;;;5.78;;
69625;SDS011;56847;51.984;5.088;2023-04-15T00:09:44;10.07;;;5.78;;
69625;SDS011;56847;51.984;5.088;2023-04-15T00:12:11;11.40;;;5.27;;
69625;SDS011;56847;51.984;5.088;2023-04-15T00:14:38;7.13;;;5.18;;
69625;SDS011;56847;51.984;5.088;2023-04-15T00:17:10;11.65;;;5.47;;
69625;SDS011;56847;51.984;5.088;2023-04-15T00:19:37;11.57;;;5.40;;
69625;SDS011;56847;51.984;5.088;2023-04-15T00:22:04;10.65;;;5.63;;
69625;SDS011;56847;51.984;5.088;2023-04-15T00:24:38;11.77;;;5.97;;
69625;SDS011;56847;51.984;5.088;2023-04-15T00:27:05;11.55;;;5.55;;
69625;SDS011;56847;51.984;5.088;2023-04-15T00:29:32;11.15;;;5.00;;
69625;SDS011;56847;51.984;5.088;2023-04-15T00:32:01;10.02;;;5.60;;
69625;SDS011;56847;51.984;5.088;2023-04-15T00:34:29;10.23;;;5.97;;
69625;SDS011;56847;51.984;5.088;2023-04-15T00:36:56;11.90;;;6.17;;
69625;SDS011;56847;51.984;5.088;2023-04-15T00:39:23;10.02;;;5.50;;
69625;SDS011;56847;51.984;5.088;2023-04-15T00:41:50;11.07;;;5.75;;
69625;SDS011;56847;51.984;5.088;2023-04-15T00:44:18;14.77;;;6.38;;
69625;SDS011;56847;51.984;5.088;2023-04-15T00:46:45;11.35;;;6.13;;
69625;SDS011;56847;51.984;5.088;2023-04-15T00:49:18;9.20;;;5.67;;
69625;SDS011;56847;51.984;5.088;2023-04-15T00:51:47;10.82;;;6.72;;
69625;SDS011;56847;51.984;5.088;2023-04-15T00:54:15;9.13;;;5.80;;
69625;SDS011;56847;51.984;5.088;2023-04-15T00:56:43;16.25;;;5.80;;
69625;SDS011;56847;51.984;5.088;2023-04-15T00:59:10;10.85;;;6.47;;
69625;SDS011;56847;51.984;5.088;2023-04-15T01:01:40;9.93;;;5.63;;
69625;SDS011;56847;51.984;5.088;2023-04-15T01:04:11;13.63;;;6.15;;
69625;SDS011;56847;51.984;5.088;2023-04-15T01:06:39;12.15;;;5.63;;
69625;SDS011;56847;51.984;5.088;2023-04-15T01:09:06;10.82;;;6.43;;
69625;SDS011;56847;51.984;5.088;2023-04-15T01:11:33;12.40;;;6.93;;
69625;SDS011;56847;51.984;5.088;2023-04-15T01:14:03;14.83;;;6.50;;
69625;SDS011;56847;51.984;5.088;2023-04-15T01:16:30;9.93;;;6.60;;
69625;SDS011;56847;51.984;5.088;2023-04-15T01:18:57;9.65;;;6.60;;
69625;SDS011;56847;51.984;5.088;2023-04-15T01:21:24;17.17;;;6.75;;
69625;SDS011;56847;51.984;5.088;2023-04-15T01:23:52;15.85;;;7.30;;
69625;SDS011;56847;51.984;5.088;2023-04-15T01:26:21;14.90;;;7.17;;
69625;SDS011;56847;51.984;5.088;2023-04-15T01:28:52;18.27;;;6.70;;
69625;SDS011;56847;51.984;5.088;2023-04-15T01:31:19;14.68;;;6.97;;
69625;SDS011;56847;51.984;5.088;2023-04-15T01:33:47;13.40;;;6.28;;
69625;SDS011;56847;51.984;5.088;2023-04-15T01:36:14;13.07;;;7.32;;
69625;SDS011;56847;51.984;5.088;2023-04-15T01:38:42;12.90;;;7.27;;
69625;SDS011;56847;51.984;5.088;2023-04-15T01:41:09;11.45;;;6.72;;
69625;SDS011;56847;51.984;5.088;2023-04-15T01:43:36;12.52;;;6.95;;
69625;SDS011;56847;51.984;5.088;2023-04-15T01:46:03;11.27;;;5.97;;
69625;SDS011;56847;51.984;5.088;2023-04-15T01:48:31;12.90;;;7.10;;
69625;SDS011;56847;51.984;5.088;2023-04-15T01:50:59;12.93;;;7.37;;
69625;SDS011;56847;51.984;5.088;2023-04-15T01:53:26;9.90;;;6.35;;
69625;SDS011;56847;51.984;5.088;2023-04-15T01:55:53;11.80;;;6.90;;
69625;SDS011;56847;51.984;5.088;2023-04-15T01:58:21;10.18;;;7.63;;
69625;SDS011;56847;51.984;5.088;2023-04-15T02:00:48;10.77;;;7.28;;
69625;SDS011;56847;51.984;5.088;2023-04-15T02:03:15;15.07;;;7.57;;
69625;SDS011;56847;51.984;5.088;2023-04-15T02:05:43;10.90;;;7.63;;
69625;SDS011;56847;51.984;5.088;2023-04-15T02:08:10;11.55;;;7.40;;
69625;SDS011;56847;51.984;5.088;2023-04-15T02:10:38;12.75;;;7.07;;
69625;SDS011;56847;51.984;5.088;2023-04-15T02:13:04;11.35;;;7.72;;
69625;SDS011;56847;51.984;5.088;2023-04-15T02:15:31;16.20;;;8.13;;
69625;SDS011;56847;51.984;5.088;2023-04-15T02:17:59;8.38;;;7.20;;
69625;SDS011;56847;51.984;5.088;2023-04-15T02:20:27;13.18;;;7.57;;
69625;SDS011;56847;51.984;5.088;2023-04-15T02:22:56;12.18;;;7.68;;
69625;SDS011;56847;51.984;5.088;2023-04-15T02:25:23;11.80;;;8.48;;
69625;SDS011;56847;51.984;5.088;2023-04-15T02:27:50;15.53;;;8.03;;
69625;SDS011;56847;51.984;5.088;2023-04-15T02:30:18;12.85;;;7.68;;
69625;SDS011;56847;51.984;5.088;2023-04-15T02:32:46;13.10;;;7.35;;
69625;SDS011;56847;51.984;5.088;2023-04-15T02:35:14;12.80;;;8.55;;
69625;SDS011;56847;51.984;5.088;2023-04-15T02:37:41;15.88;;;7.88;;
69625;SDS011;56847;51.984;5.088;2023-04-15T02:40:11;14.87;;;7.83;;
69625;SDS011;56847;51.984;5.088;2023-04-15T02:42:39;14.30;;;8.23;;
69625;SDS011;56847;51.984;5.088;2023-04-15T02:45:10;10.95;;;7.80;;
69625;SDS011;56847;51.984;5.088;2023-04-15T02:47:39;16.55;;;8.27;;
69625;SDS011;56847;51.984;5.088;2023-04-15T02:50:11;16.35;;;8.60;;
69625;SDS011;56847;51.984;5.088;2023-04-15T02:52:41;10.77;;;7.77;;
69625;SDS011;56847;51.984;5.088;2023-04-15T02:55:10;13.07;;;8.27;;
69625;SDS011;56847;51.984;5.088;2023-04-15T02:57:37;11.85;;;7.88;;
69625;SDS011;56847;51.984;5.088;2023-04-15T03:00:08;14.90;;;8.50;;
69625;SDS011;56847;51.984;5.088;2023-04-15T03:02:40;11.90;;;8.00;;
69625;SDS011;56847;51.984;5.088;2023-04-15T03:05:12;8.53;;;6.70;;
69625;SDS011;56847;51.984;5.088;2023-04-15T03:07:46;15.43;;;8.27;;
69625;SDS011;56847;51.984;5.088;2023-04-15T03:10:13;10.80;;;8.32;;
69625;SDS011;56847;51.984;5.088;2023-04-15T03:12:41;14.63;;;8.30;;
69625;SDS011;56847;51.984;5.088;2023-04-15T03:15:13;15.65;;;8.07;;
69625;SDS011;56847;51.984;5.088;2023-04-15T03:17:45;13.10;;;9.07;;
69625;SDS011;56847;51.984;5.088;2023-04-15T03:20:15;17.42;;;9.23;;
69625;SDS011;56847;51.984;5.088;2023-04-15T03:22:43;14.75;;;8.60;;
69625;SDS011;56847;51.984;5.088;2023-04-15T03:25:10;12.43;;;7.35;;
69625;SDS011;56847;51.984;5.088;2023-04-15T03:27:37;16.60;;;8.18;;
69625;SDS011;56847;51.984;5.088;2023-04-15T03:30:05;16.07;;;8.27;;
69625;SDS011;56847;51.984;5.088;2023-04-15T03:32:35;11.57;;;7.15;;
69625;SDS011;56847;51.984;5.088;2023-04-15T03:35:04;18.48;;;8.77;;
69625;SDS011;56847;51.984;5.088;2023-04-15T03:37:32;10.52;;;8.10;;
69625;SDS011;56847;51.984;5.088;2023-04-15T03:39:59;16.35;;;8.63;;
69625;SDS011;56847;51.984;5.088;2023-04-15T03:42:26;19.70;;;7.53;;
69625;SDS011;56847;51.984;5.088;2023-04-15T03:44:53;13.50;;;7.57;;
69625;SDS011;56847;51.984;5.088;2023-04-15T03:47:20;15.05;;;8.10;;
69625;SDS011;56847;51.984;5.088;2023-04-15T03:49:47;9.85;;;7.43;;
69625;SDS011;56847;51.984;5.088;2023-04-15T03:52:14;12.63;;;8.35;;
69625;SDS011;56847;51.984;5.088;2023-04-15T03:54:41;15.00;;;8.60;;
69625;SDS011;56847;51.984;5.088;2023-04-15T03:57:08;12.25;;;8.25;;
69625;SDS011;56847;51.984;5.088;2023-04-15T03:59:35;10.30;;;7.97;;
69625;SDS011;56847;51.984;5.088;2023-04-15T04:02:02;12.95;;;9.07;;
69625;SDS011;56847;51.984;5.088;2023-04-15T04:04:29;11.35;;;8.07;;
69625;SDS011;56847;51.984;5.088;2023-04-15T04:06:57;12.67;;;8.60;;
69625;SDS011;56847;51.984;5.088;2023-04-15T04:09:26;13.40;;;8.00;;
69625;SDS011;56847;51.984;5.088;2023-04-15T04:11:54;11.23;;;8.18;;
69625;SDS011;56847;51.984;5.088;2023-04-15T04:14:21;16.27;;;8.95;;
69625;SDS011;56847;51.984;5.088;2023-04-15T04:16:54;14.45;;;9.05;;
69625;SDS011;56847;51.984;5.088;2023-04-15T04:19:22;12.63;;;8.50;;
69625;SDS011;56847;51.984;5.088;2023-04-15T04:21:50;12.82;;;8.20;;
69625;SDS011;56847;51.984;5.088;2023-04-15T04:24:17;12.02;;;8.32;;
69625;SDS011;56847;51.984;5.088;2023-04-15T04:26:44;14.18;;;8.68;;
69625;SDS011;56847;51.984;5.088;2023-04-15T04:29:11;12.63;;;8.85;;
69625;SDS011;56847;51.984;5.088;2023-04-15T04:31:38;18.37;;;9.90;;
69625;SDS011;56847;51.984;5.088;2023-04-15T04:34:05;14.05;;;9.13;;
69625;SDS011;56847;51.984;5.088;2023-04-15T04:36:33;12.40;;;8.45;;
69625;SDS011;56847;51.984;5.088;2023-04-15T04:39:00;18.27;;;9.10;;
69625;SDS011;56847;51.984;5.088;2023-04-15T04:41:28;16.25;;;9.80;;
69625;SDS011;56847;51.984;5.088;2023-04-15T04:43:55;11.10;;;8.10;;
69625;SDS011;56847;51.984;5.088;2023-04-15T04:46:22;14.18;;;8.48;;
69625;SDS011;56847;51.984;5.088;2023-04-15T04:48:49;14.15;;;9.45;;
69625;SDS011;56847;51.984;5.088;2023-04-15T04:51:16;16.90;;;9.38;;
69625;SDS011;56847;51.984;5.088;2023-04-15T04:53:44;12.60;;;9.27;;
69625;SDS011;56847;51.984;5.088;2023-04-15T04:56:11;11.90;;;9.13;;
69625;SDS011;56847;51.984;5.088;2023-04-15T04:58:38;15.75;;;9.70;;
69625;SDS011;56847;51.984;5.088;2023-04-15T05:01:05;16.27;;;9.68;;
69625;SDS011;56847;51.984;5.088;2023-04-15T05:03:32;16.85;;;9.35;;
69625;SDS011;56847;51.984;5.088;2023-04-15T05:06:00;12.60;;;9.63;;
69625;SDS011;56847;51.984;5.088;2023-04-15T05:08:31;11.50;;;9.77;;
69625;SDS011;56847;51.984;5.088;2023-04-15T05:10:58;19.65;;;9.80;;
69625;SDS011;56847;51.984;5.088;2023-04-15T05:13:26;18.00;;;9.75;;
69625;SDS011;56847;51.984;5.088;2023-04-15T05:15:53;12.40;;;9.43;;
69625;SDS011;56847;51.984;5.088;2023-04-15T05:18:20;16.45;;;9.80;;
69625;SDS011;56847;51.984;5.088;2023-04-15T05:20:47;16.83;;;9.40;;
69625;SDS011;56847;51.984;5.088;2023-04-15T05:23:18;15.95;;;10.05;;
69625;SDS011;56847;51.984;5.088;2023-04-15T05:25:45;13.60;;;9.57;;
69625;SDS011;56847;51.984;5.088;2023-04-15T05:28:12;19.35;;;10.02;;
69625;SDS011;56847;51.984;5.088;2023-04-15T05:30:39;13.52;;;8.73;;
69625;SDS011;56847;51.984;5.088;2023-04-15T05:33:06;12.10;;;9.53;;
69625;SDS011;56847;51.984;5.088;2023-04-15T05:35:36;20.20;;;9.80;;
69625;SDS011;56847;51.984;5.088;2023-04-15T05:38:06;14.93;;;9.77;;
69625;SDS011;56847;51.984;5.088;2023-04-15T05:40:39;15.18;;;10.20;;
69625;SDS011;56847;51.984;5.088;2023-04-15T05:43:11;13.90;;;9.98;;
69625;SDS011;56847;51.984;5.088;2023-04-15T05:45:41;16.90;;;10.17;;
69625;SDS011;56847;51.984;5.088;2023-04-15T05:48:11;17.58;;;10.40;;
69625;SDS011;56847;51.984;5.088;2023-04-15T05:50:42;16.50;;;10.50;;
69625;SDS011;56847;51.984;5.088;2023-04-15T05:53:09;13.65;;;9.82;;
69625;SDS011;56847;51.984;5.088;2023-04-15T05:55:39;12.98;;;9.82;;
69625;SDS011;56847;51.984;5.088;2023-04-15T05:58:07;14.30;;;9.43;;
69625;SDS011;56847;51.984;5.088;2023-04-15T06:00:40;11.43;;;9.25;;
69625;SDS011;56847;51.984;5.088;2023-04-15T06:03:08;13.13;;;10.25;;
69625;SDS011;56847;51.984;5.088;2023-04-15T06:05:37;13.00;;;9.93;;
69625;SDS011;56847;51.984;5.088;2023-04-15T06:08:04;15.25;;;10.52;;
69625;SDS011;56847;51.984;5.088;2023-04-15T06:10:58;16.43;;;9.80;;
69625;SDS011;56847;51.984;5.088;2023-04-15T06:13:32;12.00;;;8.77;;
69625;SDS011;56847;51.984;5.088;2023-04-15T06:16:08;13.63;;;9.82;;
69625;SDS011;56847;51.984;5.088;2023-04-15T06:18:46;15.18;;;9.20;;
69625;SDS011;56847;51.984;5.088;2023-04-15T06:21:14;15.60;;;9.18;;
69625;SDS011;56847;51.984;5.088;2023-04-15T06:23:41;19.03;;;10.00;;
69625;SDS011;56847;51.984;5.088;2023-04-15T06:26:09;13.52;;;9.52;;
69625;SDS011;56847;51.984;5.088;2023-04-15T06:28:36;14.98;;;10.23;;
69625;SDS011;56847;51.984;5.088;2023-04-15T06:31:03;11.35;;;8.48;;
69625;SDS011;56847;51.984;5.088;2023-04-15T06:33:30;12.23;;;9.45;;
69625;SDS011;56847;51.984;5.088;2023-04-15T06:36:00;13.20;;;9.10;;
69625;SDS011;56847;51.984;5.088;2023-04-15T06:38:29;14.63;;;8.98;;
69625;SDS011;56847;51.984;5.088;2023-04-15T06:40:56;13.77;;;9.85;;
69625;SDS011;56847;51.984;5.088;2023-04-15T06:43:23;11.18;;;8.85;;
69625;SDS011;56847;51.984;5.088;2023-04-15T06:45:51;12.70;;;9.23;;
69625;SDS011;56847;51.984;5.088;2023-04-15T06:48:18;14.50;;;9.90;;
69625;SDS011;56847;51.984;5.088;2023-04-15T06:50:44;13.05;;;9.68;;
69625;SDS011;56847;51.984;5.088;2023-04-15T06:53:11;14.55;;;9.48;;
69625;SDS011;56847;51.984;5.088;2023-04-15T06:55:38;14.93;;;9.63;;
69625;SDS011;56847;51.984;5.088;2023-04-15T06:58:06;15.75;;;10.05;;
69625;SDS011;56847;51.984;5.088;2023-04-15T07:00:40;13.60;;;9.67;;
69625;SDS011;56847;51.984;5.088;2023-04-15T07:03:07;13.45;;;9.50;;
69625;SDS011;56847;51.984;5.088;2023-04-15T07:05:38;13.05;;;9.80;;
69625;SDS011;56847;51.984;5.088;2023-04-15T07:08:05;12.27;;;9.10;;
69625;SDS011;56847;51.984;5.088;2023-04-15T07:10:36;13.15;;;9.35;;
69625;SDS011;56847;51.984;5.088;2023-04-15T07:13:03;16.47;;;8.83;;
69625;SDS011;56847;51.984;5.088;2023-04-15T07:15:31;12.95;;;9.25;;
69625;SDS011;56847;51.984;5.088;2023-04-15T07:17:58;13.93;;;9.48;;
69625;SDS011;56847;51.984;5.088;2023-04-15T07:20:24;12.40;;;9.75;;
69625;SDS011;56847;51.984;5.088;2023-04-15T07:22:52;16.15;;;9.32;;
69625;SDS011;56847;51.984;5.088;2023-04-15T07:25:19;15.87;;;9.37;;
69625;SDS011;56847;51.984;5.088;2023-04-15T07:27:46;14.82;;;9.75;;
69625;SDS011;56847;51.984;5.088;2023-04-15T07:30:13;11.85;;;8.15;;
69625;SDS011;56847;51.984;5.088;2023-04-15T07:32:40;12.45;;;9.30;;
69625;SDS011;56847;51.984;5.088;2023-04-15T07:35:11;14.57;;;10.07;;
69625;SDS011;56847;51.984;5.088;2023-04-15T07:37:41;14.47;;;10.17;;
69625;SDS011;56847;51.984;5.088;2023-04-15T07:40:09;14.65;;;9.77;;
69625;SDS011;56847;51.984;5.088;2023-04-15T07:42:37;12.57;;;8.95;;
69625;SDS011;56847;51.984;5.088;2023-04-15T07:45:06;12.43;;;9.88;;
69625;SDS011;56847;51.984;5.088;2023-04-15T07:47:37;13.48;;;9.95;;
69625;SDS011;56847;51.984;5.088;2023-04-15T07:50:06;15.87;;;8.60;;
69625;SDS011;56847;51.984;5.088;2023-04-15T07:52:39;11.07;;;8.07;;
69625;SDS011;56847;51.984;5.088;2023-04-15T07:55:07;8.68;;;6.95;;
69625;SDS011;56847;51.984;5.088;2023-04-15T07:57:42;9.07;;;7.22;;
69625;SDS011;56847;51.984;5.088;2023-04-15T08:00:12;9.63;;;7.50;;
69625;SDS011;56847;51.984;5.088;2023-04-15T08:02:40;10.20;;;7.50;;
69625;SDS011;56847;51.984;5.088;2023-04-15T08:05:12;10.45;;;7.60;;
69625;SDS011;56847;51.984;5.088;2023-04-15T08:07:40;8.40;;;6.68;;
69625;SDS011;56847;51.984;5.088;2023-04-15T08:10:07;9.57;;;6.70;;
69625;SDS011;56847;51.984;5.088;2023-04-15T08:12:38;9.55;;;7.05;;
69625;SDS011;56847;51.984;5.088;2023-04-15T08:15:05;8.80;;;7.57;;
69625;SDS011;56847;51.984;5.088;2023-04-15T08:17:35;10.23;;;7.95;;
69625;SDS011;56847;51.984;5.088;2023-04-15T08:20:02;8.10;;;6.93;;
69625;SDS011;56847;51.984;5.088;2023-04-15T08:22:31;9.55;;;6.93;;
69625;SDS011;56847;51.984;5.088;2023-04-15T08:24:58;8.57;;;6.53;;
69625;SDS011;56847;51.984;5.088;2023-04-15T08:27:25;9.13;;;6.37;;
69625;SDS011;56847;51.984;5.088;2023-04-15T08:29:52;10.82;;;7.03;;
69625;SDS011;56847;51.984;5.088;2023-04-15T08:32:19;9.32;;;6.88;;
69625;SDS011;56847;51.984;5.088;2023-04-15T08:34:47;7.05;;;5.53;;
69625;SDS011;56847;51.984;5.088;2023-04-15T08:37:13;12.32;;;6.32;;
69625;SDS011;56847;51.984;5.088;2023-04-15T08:39:40;11.10;;;6.60;;
69625;SDS011;56847;51.984;5.088;2023-04-15T08:42:10;10.10;;;7.25;;
69625;SDS011;56847;51.984;5.088;2023-04-15T08:44:41;7.40;;;5.38;;
69625;SDS011;56847;51.984;5.088;2023-04-15T08:47:10;7.60;;;5.32;;
69625;SDS011;56847;51.984;5.088;2023-04-15T08:49:42;9.55;;;6.25;;
69625;SDS011;56847;51.984;5.088;2023-04-15T08:52:09;8.27;;;5.67;;
69625;SDS011;56847;51.984;5.088;2023-04-15T08:54:40;9.15;;;5.70;;
69625;SDS011;56847;51.984;5.088;2023-04-15T08:57:08;8.13;;;6.03;;
69625;SDS011;56847;51.984;5.088;2023-04-15T08:59:36;8.75;;;6.57;;
69625;SDS011;56847;51.984;5.088;2023-04-15T09:02:04;10.27;;;6.18;;
69625;SDS011;56847;51.984;5.088;2023-04-15T09:04:32;7.67;;;5.20;;
69625;SDS011;56847;51.984;5.088;2023-04-15T09:07:02;6.70;;;5.75;;
69625;SDS011;56847;51.984;5.088;2023-04-15T09:09:30;6.43;;;5.32;;
69625;SDS011;56847;51.984;5.088;2023-04-15T09:11:57;6.20;;;4.50;;
69625;SDS011;56847;51.984;5.088;2023-04-15T09:14:23;6.55;;;4.57;;
69625;SDS011;56847;51.984;5.088;2023-04-15T09:19:25;7.75;;;4.88;;
69625;SDS011;56847;51.984;5.088;2023-04-15T09:21:53;6.38;;;4.90;;
69625;SDS011;56847;51.984;5.088;2023-04-15T09:24:25;5.13;;;4.57;;
69625;SDS011;56847;51.984;5.088;2023-04-15T09:27:02;11.60;;;4.82;;
69625;SDS011;56847;51.984;5.088;2023-04-15T09:29:29;8.43;;;5.40;;
69625;SDS011;56847;51.984;5.088;2023-04-15T09:32:07;7.60;;;5.30;;
69625;SDS011;56847;51.984;5.088;2023-04-15T09:34:36;7.55;;;5.53;;
69625;SDS011;56847;51.984;5.088;2023-04-15T09:37:03;7.50;;;4.97;;
69625;SDS011;56847;51.984;5.088;2023-04-15T09:39:46;5.50;;;4.97;;
69625;SDS011;56847;51.984;5.088;2023-04-15T09:42:15;6.33;;;4.20;;
69625;SDS011;56847;51.984;5.088;2023-04-15T09:44:52;4.10;;;3.28;;
69625;SDS011;56847;51.984;5.088;2023-04-15T09:47:29;6.35;;;4.25;;
69625;SDS011;56847;51.984;5.088;2023-04-15T09:49:58;5.75;;;3.75;;
69625;SDS011;56847;51.984;5.088;2023-04-15T09:52:27;7.15;;;3.95;;
69625;SDS011;56847;51.984;5.088;2023-04-15T09:54:55;5.87;;;3.47;;
69625;SDS011;56847;51.984;5.088;2023-04-15T09:57:23;4.55;;;4.10;;
69625;SDS011;56847;51.984;5.088;2023-04-15T09:59:51;4.28;;;3.25;;
69625;SDS011;56847;51.984;5.088;2023-04-15T10:02:18;6.53;;;3.50;;
69625;SDS011;56847;51.984;5.088;2023-04-15T10:04:47;5.78;;;3.65;;
69625;SDS011;56847;51.984;5.088;2023-04-15T10:07:15;5.03;;;3.77;;
69625;SDS011;56847;51.984;5.088;2023-04-15T10:09:45;4.88;;;3.97;;
69625;SDS011;56847;51.984;5.088;2023-04-15T10:12:17;8.35;;;3.55;;
69625;SDS011;56847;51.984;5.088;2023-04-15T10:14:52;5.03;;;3.33;;
69625;SDS011;56847;51.984;5.088;2023-04-15T10:17:28;4.53;;;4.00;;
69625;SDS011;56847;51.984;5.088;2023-04-15T10:20:03;7.57;;;4.97;;
69625;SDS011;56847;51.984;5.088;2023-04-15T10:22:31;6.63;;;4.57;;
69625;SDS011;56847;51.984;5.088;2023-04-15T10:24:58;5.38;;;3.90;;
69625;SDS011;56847;51.984;5.088;2023-04-15T10:27:26;7.40;;;4.15;;
69625;SDS011;56847;51.984;5.088;2023-04-15T10:29:54;5.43;;;4.00;;
69625;SDS011;56847;51.984;5.088;2023-04-15T10:32:23;6.87;;;4.13;;
69625;SDS011;56847;51.984;5.088;2023-04-15T10:34:50;4.13;;;3.80;;
69625;SDS011;56847;51.984;5.088;2023-04-15T10:37:36;4.60;;;3.65;;
69625;SDS011;56847;51.984;5.088;2023-04-15T10:40:22;7.22;;;3.83;;
69625;SDS011;56847;51.984;5.088;2023-04-15T10:42:57;4.50;;;3.58;;
69625;SDS011;56847;51.984;5.088;2023-04-15T10:45:26;4.47;;;3.77;;
69625;SDS011;56847;51.984;5.088;2023-04-15T10:47:57;4.18;;;3.20;;
69625;SDS011;56847;51.984;5.088;2023-04-15T10:50:32;5.88;;;3.15;;
69625;SDS011;56847;51.984;5.088;2023-04-15T10:53:01;6.20;;;3.78;;
69625;SDS011;56847;51.984;5.088;2023-04-15T10:55:33;6.72;;;4.40;;
69625;SDS011;56847;51.984;5.088;2023-04-15T10:58:00;4.73;;;3.97;;
69625;SDS011;56847;51.984;5.088;2023-04-15T11:00:28;4.57;;;3.90;;
69625;SDS011;56847;51.984;5.088;2023-04-15T11:02:57;4.70;;;3.72;;
69625;SDS011;56847;51.984;5.088;2023-04-15T11:08:10;4.22;;;3.00;;
69625;SDS011;56847;51.984;5.088;2023-04-15T11:13:13;4.30;;;3.03;;
69625;SDS011;56847;51.984;5.088;2023-04-15T11:15:45;5.43;;;3.80;;
69625;SDS011;56847;51.984;5.088;2023-04-15T11:20:52;6.15;;;3.90;;
69625;SDS011;56847;51.984;5.088;2023-04-15T11:26:06;4.43;;;4.03;;
69625;SDS011;56847;51.984;5.088;2023-04-15T11:28:39;4.88;;;3.65;;
69625;SDS011;56847;51.984;5.088;2023-04-15T11:31:14;4.65;;;3.85;;
69625;SDS011;56847;51.984;5.088;2023-04-15T11:36:23;5.77;;;4.23;;
69625;SDS011;56847;51.984;5.088;2023-04-15T11:38:52;15.95;;;4.18;;
69625;SDS011;56847;51.984;5.088;2023-04-15T11:41:20;3.60;;;3.30;;
69625;SDS011;56847;51.984;5.088;2023-04-15T11:43:50;5.53;;;4.28;;
69625;SDS011;56847;51.984;5.088;2023-04-15T11:46:18;6.07;;;4.20;;
69625;SDS011;56847;51.984;5.088;2023-04-15T11:48:47;6.20;;;4.20;;
69625;SDS011;56847;51.984;5.088;2023-04-15T11:51:14;4.68;;;3.65;;
69625;SDS011;56847;51.984;5.088;2023-04-15T11:53:42;9.48;;;4.43;;
69625;SDS011;56847;51.984;5.088;2023-04-15T11:56:23;6.45;;;4.65;;
69625;SDS011;56847;51.984;5.088;2023-04-15T11:58:55;6.50;;;3.70;;
69625;SDS011;56847;51.984;5.088;2023-04-15T12:01:32;4.53;;;3.90;;
69625;SDS011;56847;51.984;5.088;2023-04-15T12:04:01;5.55;;;4.00;;
69625;SDS011;56847;51.984;5.088;2023-04-15T12:06:36;8.40;;;4.45;;
69625;SDS011;56847;51.984;5.088;2023-04-15T12:11:44;4.90;;;3.22;;
69625;SDS011;56847;51.984;5.088;2023-04-15T12:14:26;3.40;;;3.07;;
69625;SDS011;56847;51.984;5.088;2023-04-15T12:17:01;3.17;;;2.90;;
69625;SDS011;56847;51.984;5.088;2023-04-15T12:19:35;3.33;;;2.65;;
69625;SDS011;56847;51.984;5.088;2023-04-15T12:22:05;3.38;;;2.55;;
69625;SDS011;56847;51.984;5.088;2023-04-15T12:24:36;3.08;;;2.58;;
69625;SDS011;56847;51.984;5.088;2023-04-15T12:27:05;3.10;;;2.47;;
69625;SDS011;56847;51.984;5.088;2023-04-15T12:29:36;5.18;;;2.92;;
69625;SDS011;56847;51.984;5.088;2023-04-15T12:32:22;3.38;;;3.05;;
69625;SDS011;56847;51.984;5.088;2023-04-15T12:34:50;5.88;;;3.17;;
69625;SDS011;56847;51.984;5.088;2023-04-15T12:37:18;7.90;;;2.83;;
69625;SDS011;56847;51.984;5.088;2023-04-15T12:39:46;5.07;;;2.77;;
69625;SDS011;56847;51.984;5.088;2023-04-15T12:42:15;4.00;;;3.60;;
69625;SDS011;56847;51.984;5.088;2023-04-15T12:44:43;4.75;;;2.45;;
69625;SDS011;56847;51.984;5.088;2023-04-15T12:47:10;7.85;;;2.53;;
69625;SDS011;56847;51.984;5.088;2023-04-15T12:49:38;5.25;;;3.42;;
69625;SDS011;56847;51.984;5.088;2023-04-15T12:52:05;4.80;;;3.73;;
69625;SDS011;56847;51.984;5.088;2023-04-15T12:54:32;6.47;;;2.78;;
69625;SDS011;56847;51.984;5.088;2023-04-15T12:57:00;5.10;;;2.92;;
69625;SDS011;56847;51.984;5.088;2023-04-15T12:59:33;6.30;;;3.10;;
69625;SDS011;56847;51.984;5.088;2023-04-15T13:02:00;3.65;;;2.58;;
69625;SDS011;56847;51.984;5.088;2023-04-15T13:04:28;3.10;;;2.70;;
69625;SDS011;56847;51.984;5.088;2023-04-15T13:06:56;4.45;;;2.90;;
69625;SDS011;56847;51.984;5.088;2023-04-15T13:09:24;4.88;;;3.00;;
69625;SDS011;56847;51.984;5.088;2023-04-15T13:11:51;3.75;;;2.85;;
69625;SDS011;56847;51.984;5.088;2023-04-15T13:14:19;4.82;;;3.65;;
69625;SDS011;56847;51.984;5.088;2023-04-15T13:16:46;4.03;;;3.63;;
69625;SDS011;56847;51.984;5.088;2023-04-15T13:19:14;3.97;;;3.25;;
69625;SDS011;56847;51.984;5.088;2023-04-15T13:21:41;4.65;;;2.83;;
69625;SDS011;56847;51.984;5.088;2023-04-15T13:24:08;3.33;;;3.03;;
69625;SDS011;56847;51.984;5.088;2023-04-15T13:26:35;5.18;;;3.10;;
69625;SDS011;56847;51.984;5.088;2023-04-15T13:29:03;3.43;;;2.70;;
69625;SDS011;56847;51.984;5.088;2023-04-15T13:31:30;3.85;;;2.75;;
69625;SDS011;56847;51.984;5.088;2023-04-15T13:33:57;4.80;;;3.13;;
69625;SDS011;56847;51.984;5.088;2023-04-15T13:36:25;5.13;;;2.63;;
69625;SDS011;56847;51.984;5.088;2023-04-15T13:38:53;3.45;;;2.42;;
69625;SDS011;56847;51.984;5.088;2023-04-15T13:41:20;3.33;;;2.73;;
69625;SDS011;56847;51.984;5.088;2023-04-15T13:43:47;3.05;;;2.15;;
69625;SDS011;56847;51.984;5.088;2023-04-15T13:46:17;2.65;;;1.73;;
69625;SDS011;56847;51.984;5.088;2023-04-15T13:48:48;3.25;;;2.42;;
69625;SDS011;56847;51.984;5.088;2023-04-15T13:51:15;3.50;;;2.15;;
69625;SDS011;56847;51.984;5.088;2023-04-15T13:53:42;3.63;;;1.67;;
69625;SDS011;56847;51.984;5.088;2023-04-15T13:56:09;5.13;;;2.00;;
69625;SDS011;56847;51.984;5.088;2023-04-15T13:58:36;3.03;;;2.28;;
69625;SDS011;56847;51.984;5.088;2023-04-15T14:01:04;3.78;;;2.08;;
69625;SDS011;56847;51.984;5.088;2023-04-15T14:03:33;3.33;;;1.80;;
69625;SDS011;56847;51.984;5.088;2023-04-15T14:06:03;3.73;;;1.80;;
69625;SDS011;56847;51.984;5.088;2023-04-15T14:08:30;3.17;;;2.25;;
69625;SDS011;56847;51.984;5.088;2023-04-15T14:11:05;8.02;;;1.92;;
69625;SDS011;56847;51.984;5.088;2023-04-15T14:13:32;10.43;;;2.80;;
69625;SDS011;56847;51.984;5.088;2023-04-15T14:15:59;3.97;;;2.17;;
69625;SDS011;56847;51.984;5.088;2023-04-15T14:18:27;4.20;;;2.40;;
69625;SDS011;56847;51.984;5.088;2023-04-15T14:20:55;5.45;;;2.25;;
69625;SDS011;56847;51.984;5.088;2023-04-15T14:23:22;2.50;;;1.67;;
69625;SDS011;56847;51.984;5.088;2023-04-15T14:25:49;2.67;;;2.03;;
69625;SDS011;56847;51.984;5.088;2023-04-15T14:28:17;3.83;;;2.30;;
69625;SDS011;56847;51.984;5.088;2023-04-15T14:30:44;2.90;;;2.07;;
69625;SDS011;56847;51.984;5.088;2023-04-15T14:33:13;2.47;;;2.03;;
69625;SDS011;56847;51.984;5.088;2023-04-15T14:35:41;3.40;;;1.65;;
69625;SDS011;56847;51.984;5.088;2023-04-15T14:38:08;3.90;;;2.00;;
69625;SDS011;56847;51.984;5.088;2023-04-15T14:40:36;6.07;;;2.00;;
69625;SDS011;56847;51.984;5.088;2023-04-15T14:43:03;3.90;;;1.60;;
69625;SDS011;56847;51.984;5.088;2023-04-15T14:45:33;6.20;;;2.08;;
69625;SDS011;56847;51.984;5.088;2023-04-15T14:48:00;5.50;;;1.85;;
69625;SDS011;56847;51.984;5.088;2023-04-15T14:50:31;4.28;;;2.25;;
69625;SDS011;56847;51.984;5.088;2023-04-15T14:52:57;2.58;;;1.85;;
69625;SDS011;56847;51.984;5.088;2023-04-15T14:55:24;4.53;;;2.57;;
69625;SDS011;56847;51.984;5.088;2023-04-15T14:57:51;3.88;;;1.70;;
69625;SDS011;56847;51.984;5.088;2023-04-15T15:00:18;2.97;;;1.52;;
69625;SDS011;56847;51.984;5.088;2023-04-15T15:02:45;4.03;;;2.28;;
69625;SDS011;56847;51.984;5.088;2023-04-15T15:05:13;3.58;;;1.98;;
69625;SDS011;56847;51.984;5.088;2023-04-15T15:07:40;5.60;;;2.00;;
69625;SDS011;56847;51.984;5.088;2023-04-15T15:10:07;7.47;;;2.25;;